createdAt,value
2018-08-04T00:00:19.293Z,1005.5
2018-08-04T00:01:20.691Z,1005.5
2018-08-04T00:02:22.085Z,1005.5
2018-08-04T00:03:23.482Z,1005.5
2018-08-04T00:04:24.878Z,1005.5
2018-08-04T00:05:26.275Z,1005.5
2018-08-04T00:06:27.669Z,1005.5
2018-08-04T00:07:29.066Z,1005.5
2018-08-04T00:08:30.488Z,1005.5
2018-08-04T00:09:31.859Z,1005.5
2018-08-04T00:10:33.259Z,1005.5
2018-08-04T00:11:34.660Z,1005.4
2018-08-04T00:12:36.057Z,1005.5
2018-08-04T00:13:37.449Z,1005.5
2018-08-04T00:14:38.847Z,1005.5
2018-08-04T00:15:40.247Z,1005.5
2018-08-04T00:16:41.657Z,1005.5
2018-08-04T00:17:43.050Z,1005.5
2018-08-04T00:18:44.445Z,1005.5
2018-08-04T00:19:45.837Z,1005.5
2018-08-04T00:20:47.233Z,1005.5
2018-08-04T00:21:48.692Z,1005.5
2018-08-04T00:22:50.096Z,1005.5
2018-08-04T00:23:51.490Z,1005.5
2018-08-04T00:24:52.887Z,1005.5
2018-08-04T00:25:54.315Z,1005.5
2018-08-04T00:26:55.711Z,1005.5
2018-08-04T00:27:57.103Z,1005.4
2018-08-04T00:28:58.507Z,1005.4
2018-08-04T00:29:59.904Z,1005.4
2018-08-04T00:31:01.300Z,1005.4
2018-08-04T00:32:02.699Z,1005.4
2018-08-04T00:33:04.094Z,1005.4
2018-08-04T00:34:05.486Z,1005.4
2018-08-04T00:35:06.878Z,1005.4
2018-08-04T00:36:08.276Z,1005.5
2018-08-04T00:37:09.676Z,1005.5
2018-08-04T00:38:11.073Z,1005.5
2018-08-04T00:39:12.469Z,1005.5
2018-08-04T00:40:13.862Z,1005.5
2018-08-04T00:41:15.258Z,1005.5
2018-08-04T00:42:16.660Z,1005.5
2018-08-04T00:43:18.054Z,1005.5
2018-08-04T00:44:19.454Z,1005.5
2018-08-04T00:45:20.858Z,1005.5
2018-08-04T00:46:22.262Z,1005.5
2018-08-04T00:47:24.134Z,1005.5
2018-08-04T00:48:25.531Z,1005.5
2018-08-04T00:49:26.926Z,1005.5
2018-08-04T00:50:28.325Z,1005.5
2018-08-04T00:51:29.722Z,1005.5
2018-08-04T00:52:31.118Z,1005.5
2018-08-04T00:53:32.517Z,1005.5
2018-08-04T00:54:33.912Z,1005.5
2018-08-04T00:55:35.311Z,1005.5
2018-08-04T00:56:36.707Z,1005.5
2018-08-04T00:57:38.099Z,1005.4
2018-08-04T00:58:39.510Z,1005.5
2018-08-04T00:59:40.944Z,1005.4
2018-08-04T01:00:42.370Z,1005.4
2018-08-04T01:01:43.766Z,1005.4
2018-08-04T01:02:45.166Z,1005.5
2018-08-04T01:03:46.566Z,1005.5
2018-08-04T01:04:47.959Z,1005.5
2018-08-04T01:05:49.354Z,1005.5
2018-08-04T01:06:50.777Z,1005.5
2018-08-04T01:07:52.175Z,1005.5
2018-08-04T01:08:53.569Z,1005.5
2018-08-04T01:09:54.966Z,1005.6
2018-08-04T01:10:56.361Z,1005.5
2018-08-04T01:11:57.755Z,1005.5
2018-08-04T01:12:59.152Z,1005.6
2018-08-04T01:14:00.548Z,1005.5
2018-08-04T01:15:01.946Z,1005.5
2018-08-04T01:16:03.350Z,1005.5
2018-08-04T01:17:04.745Z,1005.5
2018-08-04T01:18:06.142Z,1005.4
2018-08-04T01:19:07.541Z,1005.4
2018-08-04T01:20:08.939Z,1005.5
2018-08-04T01:21:10.343Z,1005.5
2018-08-04T01:22:11.748Z,1005.5
2018-08-04T01:23:13.146Z,1005.5
2018-08-04T01:24:14.543Z,1005.6
2018-08-04T01:25:15.956Z,1005.5
2018-08-04T01:26:17.356Z,1005.5
2018-08-04T01:27:18.753Z,1005.5
2018-08-04T01:28:20.149Z,1005.5
2018-08-04T01:29:21.549Z,1005.4
2018-08-04T01:30:22.940Z,1005.4
2018-08-04T01:31:24.337Z,1005.4
2018-08-04T01:32:25.736Z,1005.4
2018-08-04T01:33:27.139Z,1005.5
2018-08-04T01:34:28.539Z,1005.4
2018-08-04T01:35:29.932Z,1005.5
2018-08-04T01:36:31.328Z,1005.5
2018-08-04T01:37:32.724Z,1005.5
2018-08-04T01:38:34.134Z,1005.5
2018-08-04T01:39:35.673Z,1005.5
2018-08-04T01:40:37.071Z,1005.6
2018-08-04T01:41:38.474Z,1005.5
2018-08-04T01:42:39.870Z,1005.6
2018-08-04T01:43:41.265Z,1005.5
2018-08-04T01:44:42.690Z,1005.6
2018-08-04T01:45:44.090Z,1005.6
2018-08-04T01:46:45.487Z,1005.6
2018-08-04T01:47:46.884Z,1005.6
2018-08-04T01:48:48.286Z,1005.6
2018-08-04T01:49:49.686Z,1005.6
2018-08-04T01:50:51.084Z,1005.6
2018-08-04T01:51:52.476Z,1005.6
2018-08-04T01:52:53.875Z,1005.6
2018-08-04T01:53:55.271Z,1005.6
2018-08-04T01:54:56.666Z,1005.6
2018-08-04T01:55:58.061Z,1005.5
2018-08-04T01:56:59.458Z,1005.5
2018-08-04T01:58:00.860Z,1005.5
2018-08-04T01:59:02.286Z,1005.5
2018-08-04T02:00:03.655Z,1005.5
2018-08-04T02:01:05.052Z,1005.5
2018-08-04T02:02:06.448Z,1005.5
2018-08-04T02:03:07.842Z,1005.5
2018-08-04T02:04:09.244Z,1005.5
2018-08-04T02:05:10.655Z,1005.4
2018-08-04T02:06:12.039Z,1005.5
2018-08-04T02:07:13.467Z,1005.4
2018-08-04T02:08:14.823Z,1005.4
2018-08-04T02:09:16.220Z,1005.4
2018-08-04T02:10:17.619Z,1005.4
2018-08-04T02:11:19.015Z,1005.4
2018-08-04T02:12:20.420Z,1005.4
2018-08-04T02:13:21.811Z,1005.4
2018-08-04T02:14:23.204Z,1005.4
2018-08-04T02:15:24.599Z,1005.4
2018-08-04T02:16:26.006Z,1005.4
2018-08-04T02:17:27.406Z,1005.4
2018-08-04T02:18:28.796Z,1005.4
2018-08-04T02:19:30.251Z,1005.4
2018-08-04T02:20:31.644Z,1005.4
2018-08-04T02:21:33.037Z,1005.4
2018-08-04T02:22:34.435Z,1005.3
2018-08-04T02:23:35.831Z,1005.4
2018-08-04T02:24:37.233Z,1005.3
2018-08-04T02:25:38.627Z,1005.4
2018-08-04T02:26:40.027Z,1005.3
2018-08-04T02:27:41.426Z,1005.3
2018-08-04T02:28:42.816Z,1005.3
2018-08-04T02:29:44.209Z,1005.3
2018-08-04T02:30:45.609Z,1005.3
2018-08-04T02:31:47.007Z,1005.3
2018-08-04T02:32:48.404Z,1005.3
2018-08-04T02:33:49.800Z,1005.3
2018-08-04T02:34:51.198Z,1005.3
2018-08-04T02:35:52.592Z,1005.3
2018-08-04T02:36:53.983Z,1005.3
2018-08-04T02:37:55.385Z,1005.3
2018-08-04T02:38:56.781Z,1005.3
2018-08-04T02:39:58.188Z,1005.3
2018-08-04T02:40:59.576Z,1005.3
2018-08-04T02:42:00.970Z,1005.3
2018-08-04T02:43:02.368Z,1005.3
2018-08-04T02:44:03.805Z,1005.3
2018-08-04T02:45:05.211Z,1005.3
2018-08-04T02:46:06.600Z,1005.3
2018-08-04T02:47:07.998Z,1005.2
2018-08-04T02:48:09.395Z,1005.2
2018-08-04T02:49:10.792Z,1005.2
2018-08-04T02:50:12.188Z,1005.1
2018-08-04T02:51:13.587Z,1005.1
2018-08-04T02:52:14.986Z,1005.1
2018-08-04T02:53:16.379Z,1005.1
2018-08-04T02:54:17.773Z,1005.1
2018-08-04T02:55:19.176Z,1005.1
2018-08-04T02:56:20.569Z,1005.1
2018-08-04T02:57:21.961Z,1005.1
2018-08-04T02:58:23.461Z,1005.2
2018-08-04T02:59:24.876Z,1005.2
2018-08-04T03:00:26.274Z,1005.2
2018-08-04T03:01:27.668Z,1005.2
2018-08-04T03:02:29.070Z,1005.2
2018-08-04T03:03:30.461Z,1005.2
2018-08-04T03:04:31.853Z,1005.2
2018-08-04T03:05:33.252Z,1005.1
2018-08-04T03:06:34.648Z,1005.1
2018-08-04T03:07:36.043Z,1005.2
2018-08-04T03:08:37.492Z,1005.2
2018-08-04T03:09:38.840Z,1005.2
2018-08-04T03:10:40.235Z,1005.2
2018-08-04T03:11:41.630Z,1005.2
2018-08-04T03:12:43.035Z,1005.2
2018-08-04T03:13:44.427Z,1005.2
2018-08-04T03:14:45.817Z,1005.2
2018-08-04T03:15:47.215Z,1005.2
2018-08-04T03:16:48.611Z,1005.2
2018-08-04T03:17:50.028Z,1005.1
2018-08-04T03:18:51.429Z,1005.2
2018-08-04T03:19:52.821Z,1005.1
2018-08-04T03:20:54.213Z,1005.1
2018-08-04T03:21:55.612Z,1005.1
2018-08-04T03:22:57.013Z,1005.1
2018-08-04T03:23:58.411Z,1005.1
2018-08-04T03:24:59.805Z,1005.1
2018-08-04T03:26:01.206Z,1005.1
2018-08-04T03:27:02.601Z,1005.0
2018-08-04T03:28:04.000Z,1005.1
2018-08-04T03:29:05.393Z,1005.1
2018-08-04T03:30:06.792Z,1005.1
2018-08-04T03:31:08.193Z,1005.1
2018-08-04T03:32:09.589Z,1005.1
2018-08-04T03:33:10.977Z,1005.1
2018-08-04T03:34:12.369Z,1005.2
2018-08-04T03:35:13.766Z,1005.2
2018-08-04T03:36:15.166Z,1005.2
2018-08-04T03:37:16.565Z,1005.2
2018-08-04T03:38:18.032Z,1005.2
2018-08-04T03:39:19.432Z,1005.2
2018-08-04T03:40:20.835Z,1005.2
2018-08-04T03:41:22.225Z,1005.2
2018-08-04T03:42:23.620Z,1005.2
2018-08-04T03:43:25.025Z,1005.1
2018-08-04T03:44:26.419Z,1005.1
2018-08-04T03:45:27.817Z,1005.1
2018-08-04T03:46:29.209Z,1005.1
2018-08-04T03:47:30.608Z,1005.1
2018-08-04T03:48:32.008Z,1005.2
2018-08-04T03:49:33.409Z,1005.2
2018-08-04T03:50:34.809Z,1005.3
2018-08-04T03:51:36.203Z,1005.3
2018-08-04T03:52:37.607Z,1005.3
2018-08-04T03:53:39.004Z,1005.3
2018-08-04T03:54:40.402Z,1005.4
2018-08-04T03:55:41.799Z,1005.3
2018-08-04T03:56:43.191Z,1005.3
2018-08-04T03:57:44.589Z,1005.4
2018-08-04T03:58:45.987Z,1005.4
2018-08-04T03:59:47.403Z,1005.4
2018-08-04T04:00:48.789Z,1005.4
2018-08-04T04:01:50.180Z,1005.3
2018-08-04T04:02:51.580Z,1005.3
2018-08-04T04:03:52.978Z,1005.3
2018-08-04T04:04:54.374Z,1005.3
2018-08-04T04:05:55.770Z,1005.3
2018-08-04T04:06:57.170Z,1005.3
2018-08-04T04:07:58.567Z,1005.3
2018-08-04T04:08:59.959Z,1005.3
2018-08-04T04:10:01.358Z,1005.3
2018-08-04T04:11:02.754Z,1005.4
2018-08-04T04:12:04.157Z,1005.4
2018-08-04T04:13:05.550Z,1005.4
2018-08-04T04:14:06.968Z,1005.5
2018-08-04T04:15:08.368Z,1005.4
2018-08-04T04:16:09.762Z,1005.4
2018-08-04T04:17:11.163Z,1005.4
2018-08-04T04:18:12.589Z,1005.4
2018-08-04T04:19:13.991Z,1005.4
2018-08-04T04:20:15.389Z,1005.4
2018-08-04T04:21:16.788Z,1005.4
2018-08-04T04:22:18.184Z,1005.4
2018-08-04T04:23:19.579Z,1005.4
2018-08-04T04:24:20.976Z,1005.4
2018-08-04T04:25:22.371Z,1005.5
2018-08-04T04:26:23.768Z,1005.6
2018-08-04T04:27:25.172Z,1005.6
2018-08-04T04:28:26.571Z,1005.6
2018-08-04T04:29:27.971Z,1005.6
2018-08-04T04:30:29.372Z,1005.6
2018-08-04T04:31:30.778Z,1005.6
2018-08-04T04:32:32.177Z,1005.5
2018-08-04T04:33:33.577Z,1005.6
2018-08-04T04:34:34.975Z,1005.5
2018-08-04T04:35:36.375Z,1005.5
2018-08-04T04:36:37.772Z,1005.5
2018-08-04T04:37:39.170Z,1005.6
2018-08-04T04:38:40.569Z,1005.5
2018-08-04T04:39:41.969Z,1005.5
2018-08-04T04:40:43.372Z,1005.6
2018-08-04T04:41:44.774Z,1005.6
2018-08-04T04:42:46.174Z,1005.6
2018-08-04T04:43:47.568Z,1005.6
2018-08-04T04:44:48.972Z,1005.6
2018-08-04T04:45:50.408Z,1005.6
2018-08-04T04:46:51.812Z,1005.6
2018-08-04T04:47:53.212Z,1005.5
2018-08-04T04:48:54.612Z,1005.5
2018-08-04T04:49:56.012Z,1005.5
2018-08-04T04:50:57.433Z,1005.5
2018-08-04T04:51:58.835Z,1005.5
2018-08-04T04:53:00.280Z,1005.5
2018-08-04T04:54:01.649Z,1005.5
2018-08-04T04:55:03.044Z,1005.4
2018-08-04T04:56:04.448Z,1005.5
2018-08-04T04:57:05.856Z,1005.5
2018-08-04T04:58:07.284Z,1005.5
2018-08-04T04:59:08.681Z,1005.4
2018-08-04T05:00:10.087Z,1005.4
2018-08-04T05:01:11.483Z,1005.5
2018-08-04T05:02:12.889Z,1005.5
2018-08-04T05:03:14.297Z,1005.5
2018-08-04T05:04:15.700Z,1005.5
2018-08-04T05:05:17.104Z,1005.6
2018-08-04T05:06:18.500Z,1005.6
2018-08-04T05:07:19.894Z,1005.7
2018-08-04T05:08:21.291Z,1005.7
2018-08-04T05:09:22.693Z,1005.7
2018-08-04T05:10:24.094Z,1005.7
2018-08-04T05:11:25.506Z,1005.7
2018-08-04T05:12:26.892Z,1005.8
2018-08-04T05:13:28.291Z,1005.8
2018-08-04T05:14:29.693Z,1005.7
2018-08-04T05:15:31.095Z,1005.7
2018-08-04T05:16:32.489Z,1005.8
2018-08-04T05:17:33.906Z,1005.8
2018-08-04T05:18:35.303Z,1005.8
2018-08-04T05:19:36.722Z,1005.8
2018-08-04T05:20:38.128Z,1005.8
2018-08-04T05:21:39.534Z,1005.8
2018-08-04T05:22:40.921Z,1005.8
2018-08-04T05:23:42.318Z,1005.8
2018-08-04T05:24:43.767Z,1005.8
2018-08-04T05:25:45.171Z,1005.8
2018-08-04T05:26:46.567Z,1005.8
2018-08-04T05:27:47.964Z,1005.7
2018-08-04T05:28:49.365Z,1005.7
2018-08-04T05:29:50.983Z,1005.7
2018-08-04T05:30:52.378Z,1005.7
2018-08-04T05:31:54.060Z,1005.7
2018-08-04T05:32:55.451Z,1005.7
2018-08-04T05:33:56.845Z,1005.8
2018-08-04T05:34:58.243Z,1005.7
2018-08-04T05:35:59.684Z,1005.7
2018-08-04T05:37:01.089Z,1005.8
2018-08-04T05:38:02.494Z,1005.7
2018-08-04T05:39:03.898Z,1005.8
2018-08-04T05:40:05.305Z,1005.8
2018-08-04T05:41:06.701Z,1005.8
2018-08-04T05:42:08.102Z,1005.8
2018-08-04T05:43:09.517Z,1005.8
2018-08-04T05:44:10.907Z,1005.9
2018-08-04T05:45:12.315Z,1005.8
2018-08-04T05:46:13.723Z,1005.9
2018-08-04T05:47:15.125Z,1005.9
2018-08-04T05:48:16.525Z,1005.9
2018-08-04T05:49:17.925Z,1005.9
2018-08-04T05:50:19.323Z,1005.9
2018-08-04T05:51:20.779Z,1005.9
2018-08-04T05:52:22.277Z,1005.9
2018-08-04T05:53:23.703Z,1005.9
2018-08-04T05:54:25.103Z,1005.9
2018-08-04T05:55:26.521Z,1005.9
2018-08-04T05:56:27.943Z,1005.9
2018-08-04T05:57:29.348Z,1005.8
2018-08-04T05:58:30.785Z,1005.8
2018-08-04T05:59:32.217Z,1005.8
2018-08-04T06:00:33.656Z,1005.8
2018-08-04T06:01:35.033Z,1005.8
2018-08-04T06:02:36.431Z,1005.8
2018-08-04T06:03:37.833Z,1005.8
2018-08-04T06:04:39.236Z,1005.8
2018-08-04T06:05:40.632Z,1005.9
2018-08-04T06:06:42.043Z,1005.9
2018-08-04T06:07:43.445Z,1005.9
2018-08-04T06:08:44.871Z,1005.9
2018-08-04T06:09:46.279Z,1005.9
2018-08-04T06:10:47.670Z,1006.0
2018-08-04T06:11:49.073Z,1006.0
2018-08-04T06:12:50.467Z,1006.0
2018-08-04T06:13:51.870Z,1006.0
2018-08-04T06:14:53.273Z,1006.0
2018-08-04T06:15:54.797Z,1006.0
2018-08-04T06:16:56.207Z,1006.0
2018-08-04T06:17:57.602Z,1006.1
2018-08-04T06:18:59.005Z,1006.0
2018-08-04T06:20:00.405Z,1006.0
2018-08-04T06:21:01.811Z,1006.0
2018-08-04T06:22:03.220Z,1006.0
2018-08-04T06:23:04.616Z,1005.9
2018-08-04T06:24:06.030Z,1005.9
2018-08-04T06:25:07.428Z,1005.9
2018-08-04T06:26:08.831Z,1006.0
2018-08-04T06:27:10.232Z,1006.0
2018-08-04T06:28:11.656Z,1006.0
2018-08-04T06:29:13.212Z,1006.0
2018-08-04T06:30:14.648Z,1006.0
2018-08-04T06:31:16.114Z,1006.0
2018-08-04T06:32:17.520Z,1006.0
2018-08-04T06:33:18.919Z,1006.0
2018-08-04T06:34:20.364Z,1006.0
2018-08-04T06:35:21.775Z,1006.0
2018-08-04T06:36:23.177Z,1006.0
2018-08-04T06:37:24.575Z,1006.0
2018-08-04T06:38:26.005Z,1006.0
2018-08-04T06:39:27.408Z,1006.1
2018-08-04T06:40:28.836Z,1006.0
2018-08-04T06:41:30.249Z,1006.1
2018-08-04T06:42:31.699Z,1006.1
2018-08-04T06:43:33.096Z,1006.1
2018-08-04T06:44:34.505Z,1006.1
2018-08-04T06:45:35.904Z,1006.1
2018-08-04T06:46:37.402Z,1006.1
2018-08-04T06:47:38.803Z,1006.1
2018-08-04T06:48:40.204Z,1006.2
2018-08-04T06:49:41.603Z,1006.1
2018-08-04T06:50:43.001Z,1006.2
2018-08-04T06:51:44.405Z,1006.2
2018-08-04T06:52:45.864Z,1006.2
2018-08-04T06:53:47.201Z,1006.2
2018-08-04T06:54:48.681Z,1006.3
2018-08-04T06:55:50.090Z,1006.2
2018-08-04T06:56:51.490Z,1006.3
2018-08-04T06:57:52.890Z,1006.3
2018-08-04T06:58:54.292Z,1006.2
2018-08-04T06:59:55.692Z,1006.2
2018-08-04T07:00:57.092Z,1006.2
2018-08-04T07:01:58.496Z,1006.2
2018-08-04T07:02:59.904Z,1006.2
2018-08-04T07:04:01.310Z,1006.2
2018-08-04T07:05:02.722Z,1006.2
2018-08-04T07:06:04.212Z,1006.2
2018-08-04T07:07:05.610Z,1006.2
2018-08-04T07:08:07.007Z,1006.2
2018-08-04T07:09:08.413Z,1006.2
2018-08-04T07:10:09.816Z,1006.2
2018-08-04T07:11:11.221Z,1006.2
2018-08-04T07:12:12.628Z,1006.2
2018-08-04T07:13:14.027Z,1006.2
2018-08-04T07:14:15.422Z,1006.2
2018-08-04T07:15:16.824Z,1006.2
2018-08-04T07:16:18.225Z,1006.2
2018-08-04T07:17:19.624Z,1006.1
2018-08-04T07:18:21.039Z,1006.1
2018-08-04T07:19:22.436Z,1006.1
2018-08-04T07:20:23.838Z,1006.1
2018-08-04T07:21:25.235Z,1006.2
2018-08-04T07:22:26.640Z,1006.2
2018-08-04T07:23:28.108Z,1006.2
2018-08-04T07:24:29.532Z,1006.2
2018-08-04T07:25:30.955Z,1006.2
2018-08-04T07:26:32.360Z,1006.2
2018-08-04T07:27:33.761Z,1006.2
2018-08-04T07:28:35.166Z,1006.2
2018-08-04T07:29:36.649Z,1006.2
2018-08-04T07:30:38.058Z,1006.3
2018-08-04T07:31:39.456Z,1006.2
2018-08-04T07:32:40.862Z,1006.2
2018-08-04T07:33:42.263Z,1006.2
2018-08-04T07:34:43.718Z,1006.3
2018-08-04T07:35:45.162Z,1006.2
2018-08-04T07:36:46.687Z,1006.2
2018-08-04T07:37:48.146Z,1006.2
2018-08-04T07:38:49.549Z,1006.2
2018-08-04T07:39:51.103Z,1006.2
2018-08-04T07:40:52.507Z,1006.2
2018-08-04T07:41:53.906Z,1006.2
2018-08-04T07:42:55.334Z,1006.2
2018-08-04T07:43:56.796Z,1006.2
2018-08-04T07:44:58.256Z,1006.2
2018-08-04T07:45:59.655Z,1006.2
2018-08-04T07:47:01.057Z,1006.2
2018-08-04T07:48:02.462Z,1006.2
2018-08-04T07:49:03.965Z,1006.2
2018-08-04T07:50:05.383Z,1006.2
2018-08-04T07:51:06.727Z,1006.3
2018-08-04T07:52:08.140Z,1006.2
2018-08-04T07:53:09.544Z,1006.2
2018-08-04T07:54:10.951Z,1006.2
2018-08-04T07:55:12.357Z,1006.2
2018-08-04T07:56:13.780Z,1006.2
2018-08-04T07:57:15.201Z,1006.3
2018-08-04T07:58:16.613Z,1006.2
2018-08-04T07:59:18.023Z,1006.3
2018-08-04T08:00:19.435Z,1006.2
2018-08-04T08:01:20.901Z,1006.3
2018-08-04T08:02:22.296Z,1006.2
2018-08-04T08:03:23.751Z,1006.2
2018-08-04T08:04:25.148Z,1006.2
2018-08-04T08:05:26.561Z,1006.2
2018-08-04T08:06:27.947Z,1006.2
2018-08-04T08:07:29.348Z,1006.2
2018-08-04T08:08:30.751Z,1006.2
2018-08-04T08:09:32.161Z,1006.1
2018-08-04T08:10:33.619Z,1006.1
2018-08-04T08:11:35.011Z,1006.1
2018-08-04T08:12:36.535Z,1006.1
2018-08-04T08:13:38.200Z,1006.2
2018-08-04T08:14:39.645Z,1006.2
2018-08-04T08:15:41.070Z,1006.2
2018-08-04T08:16:42.480Z,1006.2
2018-08-04T08:17:43.910Z,1006.2
2018-08-04T08:18:45.635Z,1006.3
2018-08-04T08:19:47.089Z,1006.2
2018-08-04T08:20:48.529Z,1006.3
2018-08-04T08:21:49.931Z,1006.3
2018-08-04T08:22:51.406Z,1006.3
2018-08-04T08:23:52.812Z,1006.3
2018-08-04T08:24:54.418Z,1006.3
2018-08-04T08:25:55.824Z,1006.3
2018-08-04T08:26:57.269Z,1006.3
2018-08-04T08:27:58.689Z,1006.4
2018-08-04T08:29:00.088Z,1006.4
2018-08-04T08:30:01.506Z,1006.4
2018-08-04T08:31:02.916Z,1006.4
2018-08-04T08:32:04.339Z,1006.4
2018-08-04T08:33:05.771Z,1006.4
2018-08-04T08:34:07.171Z,1006.4
2018-08-04T08:35:08.578Z,1006.4
2018-08-04T08:36:09.992Z,1006.4
2018-08-04T08:37:11.395Z,1006.4
2018-08-04T08:38:12.832Z,1006.4
2018-08-04T08:39:14.262Z,1006.4
2018-08-04T08:40:15.659Z,1006.4
2018-08-04T08:41:17.067Z,1006.4
2018-08-04T08:42:18.515Z,1006.4
2018-08-04T08:43:19.917Z,1006.4
2018-08-04T08:44:21.335Z,1006.4
2018-08-04T08:45:22.745Z,1006.4
2018-08-04T08:46:24.150Z,1006.4
2018-08-04T08:47:26.077Z,1006.4
2018-08-04T08:48:27.503Z,1006.5
2018-08-04T08:49:28.907Z,1006.4
2018-08-04T08:50:30.799Z,1006.5
2018-08-04T08:51:32.230Z,1006.5
2018-08-04T08:52:33.661Z,1006.5
2018-08-04T08:53:35.120Z,1006.4
2018-08-04T08:54:36.479Z,1006.4
2018-08-04T08:55:37.877Z,1006.5
2018-08-04T08:56:39.288Z,1006.5
2018-08-04T08:57:40.694Z,1006.4
2018-08-04T08:58:42.094Z,1006.5
2018-08-04T08:59:43.505Z,1006.4
2018-08-04T09:00:44.909Z,1006.4
2018-08-04T09:01:46.310Z,1006.4
2018-08-04T09:02:47.758Z,1006.4
2018-08-04T09:03:49.162Z,1006.4
2018-08-04T09:04:50.566Z,1006.4
2018-08-04T09:05:51.966Z,1006.4
2018-08-04T09:06:53.369Z,1006.4
2018-08-04T09:07:54.776Z,1006.4
2018-08-04T09:08:56.237Z,1006.4
2018-08-04T09:09:57.648Z,1006.4
2018-08-04T09:10:59.045Z,1006.4
2018-08-04T09:12:00.457Z,1006.4
2018-08-04T09:13:01.920Z,1006.4
2018-08-04T09:14:03.295Z,1006.5
2018-08-04T09:15:04.709Z,1006.5
2018-08-04T09:16:06.111Z,1006.5
2018-08-04T09:17:07.514Z,1006.5
2018-08-04T09:18:08.918Z,1006.5
2018-08-04T09:19:10.320Z,1006.5
2018-08-04T09:20:11.749Z,1006.5
2018-08-04T09:21:13.151Z,1006.4
2018-08-04T09:22:14.560Z,1006.5
2018-08-04T09:23:16.003Z,1006.4
2018-08-04T09:24:17.408Z,1006.4
2018-08-04T09:25:18.820Z,1006.4
2018-08-04T09:26:21.791Z,1006.4
2018-08-04T09:27:23.280Z,1006.5
2018-08-04T09:28:24.652Z,1006.4
2018-08-04T09:29:26.057Z,1006.5
2018-08-04T09:30:27.486Z,1006.5
2018-08-04T09:31:28.918Z,1006.4
2018-08-04T09:32:30.332Z,1006.4
2018-08-04T09:33:31.757Z,1006.4
2018-08-04T09:34:33.163Z,1006.4
2018-08-04T09:35:34.575Z,1006.4
2018-08-04T09:36:35.988Z,1006.4
2018-08-04T09:37:37.394Z,1006.4
2018-08-04T09:38:38.802Z,1006.5
2018-08-04T09:39:40.239Z,1006.5
2018-08-04T09:40:41.682Z,1006.4
2018-08-04T09:41:43.087Z,1006.5
2018-08-04T09:42:44.491Z,1006.5
2018-08-04T09:43:45.945Z,1006.5
2018-08-04T09:44:47.319Z,1006.5
2018-08-04T09:45:48.722Z,1006.4
2018-08-04T09:46:50.123Z,1006.5
2018-08-04T09:47:51.537Z,1006.5
2018-08-04T09:48:52.933Z,1006.5
2018-08-04T09:49:54.375Z,1006.5
2018-08-04T09:50:55.803Z,1006.5
2018-08-04T09:51:57.209Z,1006.5
2018-08-04T09:52:58.610Z,1006.5
2018-08-04T09:54:00.015Z,1006.4
2018-08-04T09:55:01.428Z,1006.4
2018-08-04T09:56:02.832Z,1006.4
2018-08-04T09:57:04.285Z,1006.4
2018-08-04T09:58:05.694Z,1006.4
2018-08-04T09:59:07.094Z,1006.4
2018-08-04T10:00:08.512Z,1006.4
2018-08-04T10:01:09.903Z,1006.4
2018-08-04T10:02:11.313Z,1006.4
2018-08-04T10:03:12.714Z,1006.4
2018-08-04T10:04:14.266Z,1006.4
2018-08-04T10:05:15.696Z,1006.5
2018-08-04T10:06:17.146Z,1006.5
2018-08-04T10:07:18.551Z,1006.5
2018-08-04T10:08:20.011Z,1006.4
2018-08-04T10:09:21.423Z,1006.5
2018-08-04T10:10:22.830Z,1006.4
2018-08-04T10:11:24.252Z,1006.5
2018-08-04T10:12:25.809Z,1006.4
2018-08-04T10:13:27.212Z,1006.5
2018-08-04T10:14:28.618Z,1006.5
2018-08-04T10:15:30.022Z,1006.5
2018-08-04T10:16:31.427Z,1006.5
2018-08-04T10:17:32.844Z,1006.5
2018-08-04T10:18:34.351Z,1006.5
2018-08-04T10:19:35.767Z,1006.5
2018-08-04T10:20:37.178Z,1006.5
2018-08-04T10:21:38.634Z,1006.5
2018-08-04T10:22:40.062Z,1006.5
2018-08-04T10:23:41.468Z,1006.5
2018-08-04T10:24:42.876Z,1006.5
2018-08-04T10:25:44.282Z,1006.5
2018-08-04T10:26:45.808Z,1006.5
2018-08-04T10:27:47.295Z,1006.5
2018-08-04T10:28:48.696Z,1006.5
2018-08-04T10:29:50.113Z,1006.5
2018-08-04T10:30:51.511Z,1006.5
2018-08-04T10:31:53.085Z,1006.5
2018-08-04T10:32:54.463Z,1006.5
2018-08-04T10:33:55.871Z,1006.6
2018-08-04T10:34:57.283Z,1006.5
2018-08-04T10:35:58.691Z,1006.5
2018-08-04T10:37:00.094Z,1006.5
2018-08-04T10:38:01.500Z,1006.5
2018-08-04T10:39:02.906Z,1006.5
2018-08-04T10:40:04.312Z,1006.4
2018-08-04T10:41:05.723Z,1006.4
2018-08-04T10:42:07.221Z,1006.4
2018-08-04T10:43:08.671Z,1006.4
2018-08-04T10:44:10.080Z,1006.4
2018-08-04T10:45:11.490Z,1006.4
2018-08-04T10:46:12.911Z,1006.4
2018-08-04T10:47:14.317Z,1006.4
2018-08-04T10:48:15.782Z,1006.4
2018-08-04T10:49:17.185Z,1006.4
2018-08-04T10:50:18.593Z,1006.4
2018-08-04T10:51:19.998Z,1006.4
2018-08-04T10:52:21.408Z,1006.4
2018-08-04T10:53:22.821Z,1006.4
2018-08-04T10:54:24.327Z,1006.5
2018-08-04T10:55:25.737Z,1006.4
2018-08-04T10:56:27.149Z,1006.5
2018-08-04T10:57:28.555Z,1006.5
2018-08-04T10:58:29.963Z,1006.5
2018-08-04T10:59:31.368Z,1006.5
2018-08-04T11:00:32.780Z,1006.5
2018-08-04T11:01:34.191Z,1006.5
2018-08-04T11:02:35.612Z,1006.4
2018-08-04T11:03:37.014Z,1006.5
2018-08-04T11:04:38.421Z,1006.5
2018-08-04T11:05:39.832Z,1006.5
2018-08-04T11:06:41.236Z,1006.5
2018-08-04T11:07:42.648Z,1006.5
2018-08-04T11:08:44.064Z,1006.5
2018-08-04T11:09:45.476Z,1006.5
2018-08-04T11:10:46.885Z,1006.5
2018-08-04T11:11:48.293Z,1006.5
2018-08-04T11:12:49.758Z,1006.5
2018-08-04T11:13:51.169Z,1006.4
2018-08-04T11:14:52.584Z,1006.4
2018-08-04T11:15:54.000Z,1006.5
2018-08-04T11:16:55.769Z,1006.5
2018-08-04T11:17:57.219Z,1006.5
2018-08-04T11:18:58.644Z,1006.4
2018-08-04T11:20:00.060Z,1006.4
2018-08-04T11:21:01.632Z,1006.4
2018-08-04T11:22:03.093Z,1006.4
2018-08-04T11:23:04.504Z,1006.4
2018-08-04T11:24:05.941Z,1006.4
2018-08-04T11:25:07.334Z,1006.4
2018-08-04T11:26:08.777Z,1006.4
2018-08-04T11:27:10.203Z,1006.3
2018-08-04T11:28:11.637Z,1006.3
2018-08-04T11:29:13.046Z,1006.3
2018-08-04T11:30:14.480Z,1006.3
2018-08-04T11:31:15.940Z,1006.4
2018-08-04T11:32:17.395Z,1006.3
2018-08-04T11:33:18.822Z,1006.3
2018-08-04T11:34:20.272Z,1006.3
2018-08-04T11:35:21.681Z,1006.3
2018-08-04T11:36:23.098Z,1006.3
2018-08-04T11:37:24.515Z,1006.3
2018-08-04T11:38:25.962Z,1006.3
2018-08-04T11:39:27.376Z,1006.3
2018-08-04T11:40:28.829Z,1006.3
2018-08-04T11:41:30.237Z,1006.2
2018-08-04T11:42:31.655Z,1006.3
2018-08-04T11:43:33.071Z,1006.2
2018-08-04T11:44:34.487Z,1006.2
2018-08-04T11:45:35.970Z,1006.2
2018-08-04T11:46:37.311Z,1006.2
2018-08-04T11:47:38.721Z,1006.2
2018-08-04T11:48:40.128Z,1006.1
2018-08-04T11:49:41.542Z,1006.1
2018-08-04T11:50:42.957Z,1006.2
2018-08-04T11:51:44.374Z,1006.2
2018-08-04T11:52:45.790Z,1006.2
2018-08-04T11:53:47.193Z,1006.2
2018-08-04T11:54:48.602Z,1006.2
2018-08-04T11:55:50.030Z,1006.2
2018-08-04T11:56:51.429Z,1006.1
2018-08-04T11:57:52.848Z,1006.2
2018-08-04T11:58:54.262Z,1006.2
2018-08-04T11:59:55.678Z,1006.2
2018-08-04T12:00:57.249Z,1006.2
2018-08-04T12:01:58.725Z,1006.2
2018-08-04T12:03:00.097Z,1006.1
2018-08-04T12:04:02.573Z,1006.2
2018-08-04T12:05:03.991Z,1006.1
2018-08-04T12:06:05.406Z,1006.2
2018-08-04T12:07:06.815Z,1006.2
2018-08-04T12:08:08.224Z,1006.2
2018-08-04T12:09:09.638Z,1006.2
2018-08-04T12:10:11.050Z,1006.1
2018-08-04T12:11:12.466Z,1006.2
2018-08-04T12:12:13.999Z,1006.1
2018-08-04T12:13:15.265Z,1006.1
2018-08-04T12:14:16.678Z,1006.0
2018-08-04T12:15:18.098Z,1006.1
2018-08-04T12:16:19.506Z,1006.0
2018-08-04T12:17:20.920Z,1006.1
2018-08-04T12:18:22.329Z,1006.0
2018-08-04T12:19:23.743Z,1006.0
2018-08-04T12:20:25.150Z,1006.1
2018-08-04T12:21:26.565Z,1006.1
2018-08-04T12:22:27.977Z,1006.1
2018-08-04T12:23:29.391Z,1006.0
2018-08-04T12:24:30.797Z,1006.1
2018-08-04T12:25:32.213Z,1006.1
2018-08-04T12:26:33.624Z,1006.1
2018-08-04T12:27:35.029Z,1006.1
2018-08-04T12:28:36.460Z,1006.1
2018-08-04T12:29:37.846Z,1006.0
2018-08-04T12:30:39.259Z,1006.0
2018-08-04T12:31:40.672Z,1006.0
2018-08-04T12:32:42.084Z,1006.0
2018-08-04T12:33:43.495Z,1006.0
2018-08-04T12:34:44.903Z,1006.0
2018-08-04T12:35:46.320Z,1006.0
2018-08-04T12:36:47.733Z,1006.0
2018-08-04T12:37:49.143Z,1005.9
2018-08-04T12:38:50.655Z,1005.9
2018-08-04T12:39:52.093Z,1005.9
2018-08-04T12:40:53.503Z,1006.0
2018-08-04T12:41:54.912Z,1006.0
2018-08-04T12:42:56.328Z,1006.0
2018-08-04T12:43:57.741Z,1006.0
2018-08-04T12:44:59.148Z,1006.0
2018-08-04T12:46:00.566Z,1006.0